sensor_id;sensor_type;location;lat;lon;timestamp;P1;durP1;ratioP1;P2;durP2;ratioP2
26201;SDS011;13944;28.562;77.188;2022-09-09T00:01:32;68.63;;;50.00;;
26201;SDS011;13944;28.562;77.188;2022-09-09T00:04:10;64.88;;;48.55;;
26201;SDS011;13944;28.562;77.188;2022-09-09T00:09:26;68.78;;;50.67;;
26201;SDS011;13944;28.562;77.188;2022-09-09T00:12:12;56.08;;;49.05;;
26201;SDS011;13944;28.562;77.188;2022-09-09T00:17:43;66.97;;;51.88;;
26201;SDS011;13944;28.562;77.188;2022-09-09T00:20:20;56.42;;;50.30;;
26201;SDS011;13944;28.562;77.188;2022-09-09T00:22:54;60.97;;;51.60;;
26201;SDS011;13944;28.562;77.188;2022-09-09T00:25:26;64.75;;;50.83;;
26201;SDS011;13944;28.562;77.188;2022-09-09T00:27:54;60.85;;;50.63;;
26201;SDS011;13944;28.562;77.188;2022-09-09T00:30:24;66.30;;;50.60;;
26201;SDS011;13944;28.562;77.188;2022-09-09T00:32:55;74.32;;;53.65;;
26201;SDS011;13944;28.562;77.188;2022-09-09T00:35:26;67.40;;;50.80;;
26201;SDS011;13944;28.562;77.188;2022-09-09T00:37:55;65.55;;;52.15;;
26201;SDS011;13944;28.562;77.188;2022-09-09T00:51:00;69.65;;;53.00;;
26201;SDS011;13944;28.562;77.188;2022-09-09T00:58:57;66.15;;;52.10;;
26201;SDS011;13944;28.562;77.188;2022-09-09T01:01:25;70.47;;;54.33;;
26201;SDS011;13944;28.562;77.188;2022-09-09T01:03:56;101.45;;;54.20;;
26201;SDS011;13944;28.562;77.188;2022-09-09T01:06:33;80.22;;;46.83;;
26201;SDS011;13944;28.562;77.188;2022-09-09T01:14:51;112.60;;;51.45;;
26201;SDS011;13944;28.562;77.188;2022-09-09T01:17:21;101.45;;;51.13;;
26201;SDS011;13944;28.562;77.188;2022-09-09T01:22:22;115.22;;;52.30;;
26201;SDS011;13944;28.562;77.188;2022-09-09T01:27:38;65.15;;;44.83;;
26201;SDS011;13944;28.562;77.188;2022-09-09T01:30:10;60.38;;;45.97;;
26201;SDS011;13944;28.562;77.188;2022-09-09T01:38:01;136.25;;;51.00;;
26201;SDS011;13944;28.562;77.188;2022-09-09T01:40:33;125.70;;;46.70;;
26201;SDS011;13944;28.562;77.188;2022-09-09T01:43:03;68.75;;;42.85;;
26201;SDS011;13944;28.562;77.188;2022-09-09T01:45:30;68.78;;;44.03;;
26201;SDS011;13944;28.562;77.188;2022-09-09T01:47:56;65.38;;;45.10;;
26201;SDS011;13944;28.562;77.188;2022-09-09T01:50:23;54.53;;;41.00;;
26201;SDS011;13944;28.562;77.188;2022-09-09T01:52:51;57.47;;;47.55;;
26201;SDS011;13944;28.562;77.188;2022-09-09T01:55:20;76.13;;;48.88;;
26201;SDS011;13944;28.562;77.188;2022-09-09T01:57:58;57.00;;;44.03;;
26201;SDS011;13944;28.562;77.188;2022-09-09T02:00:27;57.20;;;43.13;;
26201;SDS011;13944;28.562;77.188;2022-09-09T02:03:15;59.55;;;43.65;;
26201;SDS011;13944;28.562;77.188;2022-09-09T02:05:52;62.78;;;48.22;;
26201;SDS011;13944;28.562;77.188;2022-09-09T02:08:26;54.75;;;43.28;;
26201;SDS011;13944;28.562;77.188;2022-09-09T02:10:56;57.70;;;46.10;;
26201;SDS011;13944;28.562;77.188;2022-09-09T02:13:25;56.30;;;46.17;;
26201;SDS011;13944;28.562;77.188;2022-09-09T02:15:53;61.92;;;46.63;;
26201;SDS011;13944;28.562;77.188;2022-09-09T02:18:26;65.85;;;49.85;;
26201;SDS011;13944;28.562;77.188;2022-09-09T02:20:54;64.40;;;47.58;;
26201;SDS011;13944;28.562;77.188;2022-09-09T02:23:22;59.50;;;44.40;;
26201;SDS011;13944;28.562;77.188;2022-09-09T02:25:50;61.83;;;43.10;;
26201;SDS011;13944;28.562;77.188;2022-09-09T02:28:18;59.20;;;43.42;;
26201;SDS011;13944;28.562;77.188;2022-09-09T02:30:46;58.53;;;43.90;;
26201;SDS011;13944;28.562;77.188;2022-09-09T02:33:22;58.80;;;43.53;;
26201;SDS011;13944;28.562;77.188;2022-09-09T02:35:51;58.95;;;41.67;;
26201;SDS011;13944;28.562;77.188;2022-09-09T02:38:18;50.38;;;40.70;;
26201;SDS011;13944;28.562;77.188;2022-09-09T02:40:46;61.13;;;44.05;;
26201;SDS011;13944;28.562;77.188;2022-09-09T02:43:17;53.88;;;44.47;;
26201;SDS011;13944;28.562;77.188;2022-09-09T02:50:59;67.07;;;47.00;;
26201;SDS011;13944;28.562;77.188;2022-09-09T02:53:36;61.88;;;45.75;;
26201;SDS011;13944;28.562;77.188;2022-09-09T02:56:08;70.07;;;48.58;;
26201;SDS011;13944;28.562;77.188;2022-09-09T02:58:36;71.65;;;48.22;;
26201;SDS011;13944;28.562;77.188;2022-09-09T03:01:04;87.28;;;54.75;;
26201;SDS011;13944;28.562;77.188;2022-09-09T03:03:31;88.60;;;53.65;;
26201;SDS011;13944;28.562;77.188;2022-09-09T03:05:57;79.47;;;50.47;;
26201;SDS011;13944;28.562;77.188;2022-09-09T03:08:27;69.63;;;46.60;;
26201;SDS011;13944;28.562;77.188;2022-09-09T03:10:54;64.75;;;46.28;;
26201;SDS011;13944;28.562;77.188;2022-09-09T03:13:21;73.45;;;51.42;;
26201;SDS011;13944;28.562;77.188;2022-09-09T03:15:47;64.75;;;44.47;;
26201;SDS011;13944;28.562;77.188;2022-09-09T03:18:17;119.60;;;56.42;;
26201;SDS011;13944;28.562;77.188;2022-09-09T03:20:53;96.68;;;53.10;;
26201;SDS011;13944;28.562;77.188;2022-09-09T03:23:24;82.95;;;53.55;;
26201;SDS011;13944;28.562;77.188;2022-09-09T03:25:51;98.50;;;61.45;;
26201;SDS011;13944;28.562;77.188;2022-09-09T03:28:22;119.35;;;79.97;;
26201;SDS011;13944;28.562;77.188;2022-09-09T03:30:50;116.25;;;82.80;;
26201;SDS011;13944;28.562;77.188;2022-09-09T03:33:17;141.88;;;111.80;;
26201;SDS011;13944;28.562;77.188;2022-09-09T03:35:47;144.48;;;102.70;;
26201;SDS011;13944;28.562;77.188;2022-09-09T03:38:13;143.70;;;97.78;;
26201;SDS011;13944;28.562;77.188;2022-09-09T03:40:47;155.73;;;111.22;;
26201;SDS011;13944;28.562;77.188;2022-09-09T03:43:14;106.57;;;80.55;;
26201;SDS011;13944;28.562;77.188;2022-09-09T03:45:45;96.82;;;70.07;;
26201;SDS011;13944;28.562;77.188;2022-09-09T03:48:18;80.68;;;57.33;;
26201;SDS011;13944;28.562;77.188;2022-09-09T03:50:48;80.63;;;57.80;;
26201;SDS011;13944;28.562;77.188;2022-09-09T03:53:15;66.22;;;52.10;;
26201;SDS011;13944;28.562;77.188;2022-09-09T03:55:46;68.35;;;49.88;;
26201;SDS011;13944;28.562;77.188;2022-09-09T03:58:13;63.20;;;47.72;;
26201;SDS011;13944;28.562;77.188;2022-09-09T04:00:40;55.70;;;44.47;;
26201;SDS011;13944;28.562;77.188;2022-09-09T04:03:08;58.40;;;43.45;;
26201;SDS011;13944;28.562;77.188;2022-09-09T04:05:35;64.00;;;45.65;;
26201;SDS011;13944;28.562;77.188;2022-09-09T04:08:07;54.35;;;43.25;;
26201;SDS011;13944;28.562;77.188;2022-09-09T04:10:34;62.13;;;45.33;;
26201;SDS011;13944;28.562;77.188;2022-09-09T04:13:04;64.55;;;45.58;;
26201;SDS011;13944;28.562;77.188;2022-09-09T04:15:31;62.77;;;49.70;;
26201;SDS011;13944;28.562;77.188;2022-09-09T04:18:00;62.28;;;46.50;;
26201;SDS011;13944;28.562;77.188;2022-09-09T04:20:27;62.78;;;46.90;;
26201;SDS011;13944;28.562;77.188;2022-09-09T04:22:54;62.53;;;43.38;;
26201;SDS011;13944;28.562;77.188;2022-09-09T04:25:21;49.45;;;41.97;;
26201;SDS011;13944;28.562;77.188;2022-09-09T04:27:52;59.75;;;41.65;;
26201;SDS011;13944;28.562;77.188;2022-09-09T04:30:20;57.28;;;38.28;;
26201;SDS011;13944;28.562;77.188;2022-09-09T04:32:46;64.53;;;40.60;;
26201;SDS011;13944;28.562;77.188;2022-09-09T04:35:13;57.38;;;41.67;;
26201;SDS011;13944;28.562;77.188;2022-09-09T04:37:39;51.47;;;40.67;;
26201;SDS011;13944;28.562;77.188;2022-09-09T04:40:06;53.78;;;41.28;;
26201;SDS011;13944;28.562;77.188;2022-09-09T04:42:38;61.42;;;42.65;;
26201;SDS011;13944;28.562;77.188;2022-09-09T04:45:09;65.38;;;46.97;;
26201;SDS011;13944;28.562;77.188;2022-09-09T04:47:36;59.08;;;43.47;;
26201;SDS011;13944;28.562;77.188;2022-09-09T04:50:03;58.67;;;42.60;;
26201;SDS011;13944;28.562;77.188;2022-09-09T04:52:30;54.25;;;40.88;;
26201;SDS011;13944;28.562;77.188;2022-09-09T04:54:57;57.00;;;39.80;;
26201;SDS011;13944;28.562;77.188;2022-09-09T04:57:23;61.22;;;45.00;;
26201;SDS011;13944;28.562;77.188;2022-09-09T04:59:50;55.47;;;43.75;;
26201;SDS011;13944;28.562;77.188;2022-09-09T05:02:17;50.25;;;43.78;;
26201;SDS011;13944;28.562;77.188;2022-09-09T05:04:46;51.92;;;41.25;;
26201;SDS011;13944;28.562;77.188;2022-09-09T05:07:14;56.17;;;42.83;;
26201;SDS011;13944;28.562;77.188;2022-09-09T05:09:50;52.10;;;40.60;;
26201;SDS011;13944;28.562;77.188;2022-09-09T05:12:20;46.65;;;41.42;;
26201;SDS011;13944;28.562;77.188;2022-09-09T05:14:49;45.22;;;40.28;;
26201;SDS011;13944;28.562;77.188;2022-09-09T05:17:18;47.33;;;40.92;;
26201;SDS011;13944;28.562;77.188;2022-09-09T05:19:46;50.65;;;39.45;;
26201;SDS011;13944;28.562;77.188;2022-09-09T05:22:17;46.65;;;39.33;;
26201;SDS011;13944;28.562;77.188;2022-09-09T05:24:44;43.17;;;38.30;;
26201;SDS011;13944;28.562;77.188;2022-09-09T05:27:11;40.22;;;33.63;;
26201;SDS011;13944;28.562;77.188;2022-09-09T05:29:46;45.20;;;38.20;;
26201;SDS011;13944;28.562;77.188;2022-09-09T05:32:19;39.95;;;34.58;;
26201;SDS011;13944;28.562;77.188;2022-09-09T05:34:53;40.40;;;33.65;;
26201;SDS011;13944;28.562;77.188;2022-09-09T05:37:20;41.35;;;34.90;;
26201;SDS011;13944;28.562;77.188;2022-09-09T05:39:46;40.88;;;35.17;;
26201;SDS011;13944;28.562;77.188;2022-09-09T05:42:13;44.92;;;38.10;;
26201;SDS011;13944;28.562;77.188;2022-09-09T05:44:40;42.63;;;37.35;;
26201;SDS011;13944;28.562;77.188;2022-09-09T05:47:10;44.17;;;36.20;;
26201;SDS011;13944;28.562;77.188;2022-09-09T05:49:36;45.60;;;37.55;;
26201;SDS011;13944;28.562;77.188;2022-09-09T05:52:03;48.78;;;37.53;;
26201;SDS011;13944;28.562;77.188;2022-09-09T05:54:30;45.97;;;38.08;;
26201;SDS011;13944;28.562;77.188;2022-09-09T05:56:57;46.22;;;38.90;;
26201;SDS011;13944;28.562;77.188;2022-09-09T05:59:24;46.85;;;39.78;;
26201;SDS011;13944;28.562;77.188;2022-09-09T06:01:51;48.63;;;39.00;;
26201;SDS011;13944;28.562;77.188;2022-09-09T06:04:17;42.03;;;37.45;;
26201;SDS011;13944;28.562;77.188;2022-09-09T06:06:49;42.17;;;37.60;;
26201;SDS011;13944;28.562;77.188;2022-09-09T06:09:15;43.20;;;37.60;;
26201;SDS011;13944;28.562;77.188;2022-09-09T06:11:42;47.72;;;40.08;;
26201;SDS011;13944;28.562;77.188;2022-09-09T06:14:09;45.40;;;38.72;;
26201;SDS011;13944;28.562;77.188;2022-09-09T06:16:36;44.42;;;37.83;;
26201;SDS011;13944;28.562;77.188;2022-09-09T06:19:08;46.17;;;35.42;;
26201;SDS011;13944;28.562;77.188;2022-09-09T06:21:36;47.67;;;38.45;;
26201;SDS011;13944;28.562;77.188;2022-09-09T06:24:03;46.83;;;37.40;;
26201;SDS011;13944;28.562;77.188;2022-09-09T06:26:30;45.33;;;34.90;;
26201;SDS011;13944;28.562;77.188;2022-09-09T06:28:57;46.17;;;35.75;;
26201;SDS011;13944;28.562;77.188;2022-09-09T06:31:25;38.00;;;33.45;;
26201;SDS011;13944;28.562;77.188;2022-09-09T06:33:52;44.47;;;32.92;;
26201;SDS011;13944;28.562;77.188;2022-09-09T06:36:24;41.90;;;33.25;;
26201;SDS011;13944;28.562;77.188;2022-09-09T06:38:51;43.20;;;33.33;;
26201;SDS011;13944;28.562;77.188;2022-09-09T06:41:18;40.67;;;33.15;;
26201;SDS011;13944;28.562;77.188;2022-09-09T06:43:45;39.58;;;33.75;;
26201;SDS011;13944;28.562;77.188;2022-09-09T06:48:39;40.38;;;32.25;;
26201;SDS011;13944;28.562;77.188;2022-09-09T06:53:34;48.63;;;33.20;;
26201;SDS011;13944;28.562;77.188;2022-09-09T06:58:37;36.67;;;32.10;;
26201;SDS011;13944;28.562;77.188;2022-09-09T07:01:04;36.15;;;32.30;;
26201;SDS011;13944;28.562;77.188;2022-09-09T07:03:31;37.58;;;30.23;;
26201;SDS011;13944;28.562;77.188;2022-09-09T07:05:57;38.08;;;28.95;;
26201;SDS011;13944;28.562;77.188;2022-09-09T07:08:24;35.92;;;30.63;;
26201;SDS011;13944;28.562;77.188;2022-09-09T07:10:52;40.25;;;31.85;;
26201;SDS011;13944;28.562;77.188;2022-09-09T07:13:25;44.90;;;30.83;;
26201;SDS011;13944;28.562;77.188;2022-09-09T07:15:52;37.22;;;30.08;;
26201;SDS011;13944;28.562;77.188;2022-09-09T07:18:19;41.03;;;31.65;;
26201;SDS011;13944;28.562;77.188;2022-09-09T07:20:55;42.40;;;31.70;;
26201;SDS011;13944;28.562;77.188;2022-09-09T07:23:22;37.20;;;30.08;;
26201;SDS011;13944;28.562;77.188;2022-09-09T07:25:49;42.03;;;31.20;;
26201;SDS011;13944;28.562;77.188;2022-09-09T07:28:18;43.70;;;33.85;;
26201;SDS011;13944;28.562;77.188;2022-09-09T07:31:06;41.17;;;31.52;;
26201;SDS011;13944;28.562;77.188;2022-09-09T07:33:33;38.40;;;29.70;;
26201;SDS011;13944;28.562;77.188;2022-09-09T07:38:30;38.53;;;30.73;;
26201;SDS011;13944;28.562;77.188;2022-09-09T07:41:07;42.20;;;32.38;;
26201;SDS011;13944;28.562;77.188;2022-09-09T07:43:40;41.42;;;32.13;;
26201;SDS011;13944;28.562;77.188;2022-09-09T07:46:08;41.92;;;31.90;;
26201;SDS011;13944;28.562;77.188;2022-09-09T07:48:34;37.25;;;31.35;;
26201;SDS011;13944;28.562;77.188;2022-09-09T07:51:11;42.10;;;33.33;;
26201;SDS011;13944;28.562;77.188;2022-09-09T07:53:40;39.20;;;31.58;;
26201;SDS011;13944;28.562;77.188;2022-09-09T07:56:08;41.25;;;31.85;;
26201;SDS011;13944;28.562;77.188;2022-09-09T07:58:36;37.78;;;32.42;;
26201;SDS011;13944;28.562;77.188;2022-09-09T08:01:09;38.70;;;31.20;;
26201;SDS011;13944;28.562;77.188;2022-09-09T08:03:36;34.67;;;30.95;;
26201;SDS011;13944;28.562;77.188;2022-09-09T08:06:04;36.75;;;31.63;;
26201;SDS011;13944;28.562;77.188;2022-09-09T08:08:32;38.15;;;30.70;;
26201;SDS011;13944;28.562;77.188;2022-09-09T08:11:06;34.38;;;28.63;;
26201;SDS011;13944;28.562;77.188;2022-09-09T08:13:35;39.05;;;30.50;;
26201;SDS011;13944;28.562;77.188;2022-09-09T08:16:20;36.17;;;30.60;;
26201;SDS011;13944;28.562;77.188;2022-09-09T08:18:51;35.75;;;31.52;;
26201;SDS011;13944;28.562;77.188;2022-09-09T08:21:20;37.00;;;30.23;;
26201;SDS011;13944;28.562;77.188;2022-09-09T08:23:47;39.20;;;31.38;;
26201;SDS011;13944;28.562;77.188;2022-09-09T08:26:18;41.78;;;32.67;;
26201;SDS011;13944;28.562;77.188;2022-09-09T08:28:52;37.40;;;33.22;;
26201;SDS011;13944;28.562;77.188;2022-09-09T08:31:20;41.20;;;35.20;;
26201;SDS011;13944;28.562;77.188;2022-09-09T08:33:47;38.47;;;34.47;;
26201;SDS011;13944;28.562;77.188;2022-09-09T08:36:14;36.08;;;31.10;;
26201;SDS011;13944;28.562;77.188;2022-09-09T08:38:42;34.50;;;30.55;;
26201;SDS011;13944;28.562;77.188;2022-09-09T08:44:10;39.15;;;33.30;;
26201;SDS011;13944;28.562;77.188;2022-09-09T08:52:00;41.05;;;33.50;;
26201;SDS011;13944;28.562;77.188;2022-09-09T08:54:29;38.78;;;34.03;;
26201;SDS011;13944;28.562;77.188;2022-09-09T08:56:58;41.15;;;33.95;;
26201;SDS011;13944;28.562;77.188;2022-09-09T08:59:25;38.13;;;32.28;;
26201;SDS011;13944;28.562;77.188;2022-09-09T09:07:18;48.65;;;32.75;;
26201;SDS011;13944;28.562;77.188;2022-09-09T09:10:01;46.38;;;32.33;;
26201;SDS011;13944;28.562;77.188;2022-09-09T09:12:30;36.72;;;30.50;;
26201;SDS011;13944;28.562;77.188;2022-09-09T09:14:59;34.22;;;29.23;;
26201;SDS011;13944;28.562;77.188;2022-09-09T09:17:28;34.55;;;30.75;;
26201;SDS011;13944;28.562;77.188;2022-09-09T09:19:58;39.83;;;30.10;;
26201;SDS011;13944;28.562;77.188;2022-09-09T09:27:31;35.70;;;30.23;;
26201;SDS011;13944;28.562;77.188;2022-09-09T09:29:59;35.28;;;28.98;;
26201;SDS011;13944;28.562;77.188;2022-09-09T09:32:28;36.28;;;29.90;;
26201;SDS011;13944;28.562;77.188;2022-09-09T09:34:56;34.35;;;28.70;;
26201;SDS011;13944;28.562;77.188;2022-09-09T09:37:29;33.78;;;28.38;;
26201;SDS011;13944;28.562;77.188;2022-09-09T09:40:07;40.25;;;29.00;;
26201;SDS011;13944;28.562;77.188;2022-09-09T09:42:34;30.85;;;26.00;;
26201;SDS011;13944;28.562;77.188;2022-09-09T09:45:07;34.17;;;27.92;;
26201;SDS011;13944;28.562;77.188;2022-09-09T09:47:35;36.20;;;28.90;;
26201;SDS011;13944;28.562;77.188;2022-09-09T09:50:02;33.15;;;26.67;;
26201;SDS011;13944;28.562;77.188;2022-09-09T09:52:30;35.28;;;25.92;;
26201;SDS011;13944;28.562;77.188;2022-09-09T09:54:59;36.22;;;25.73;;
26201;SDS011;13944;28.562;77.188;2022-09-09T09:57:30;34.28;;;25.00;;
26201;SDS011;13944;28.562;77.188;2022-09-09T10:02:39;30.45;;;24.65;;
26201;SDS011;13944;28.562;77.188;2022-09-09T10:05:27;38.85;;;27.05;;
26201;SDS011;13944;28.562;77.188;2022-09-09T10:08:11;36.90;;;27.08;;
26201;SDS011;13944;28.562;77.188;2022-09-09T10:10:47;34.50;;;26.73;;
26201;SDS011;13944;28.562;77.188;2022-09-09T10:18:46;35.42;;;28.10;;
26201;SDS011;13944;28.562;77.188;2022-09-09T10:28:59;36.53;;;30.95;;
26201;SDS011;13944;28.562;77.188;2022-09-09T10:31:52;45.78;;;31.30;;
26201;SDS011;13944;28.562;77.188;2022-09-09T10:37:00;36.25;;;30.02;;
26201;SDS011;13944;28.562;77.188;2022-09-09T10:39:35;31.58;;;27.30;;
26201;SDS011;13944;28.562;77.188;2022-09-09T10:42:14;36.85;;;28.70;;
26201;SDS011;13944;28.562;77.188;2022-09-09T10:47:21;31.70;;;24.10;;
26201;SDS011;13944;28.562;77.188;2022-09-09T10:57:33;36.78;;;29.10;;
26201;SDS011;13944;28.562;77.188;2022-09-09T11:00:10;33.10;;;27.75;;
26201;SDS011;13944;28.562;77.188;2022-09-09T11:02:40;33.15;;;27.40;;
26201;SDS011;13944;28.562;77.188;2022-09-09T11:08:10;35.40;;;28.75;;
26201;SDS011;13944;28.562;77.188;2022-09-09T11:13:23;40.15;;;33.33;;
26201;SDS011;13944;28.562;77.188;2022-09-09T11:15:59;40.35;;;34.10;;
26201;SDS011;13944;28.562;77.188;2022-09-09T11:18:28;38.47;;;31.90;;
26201;SDS011;13944;28.562;77.188;2022-09-09T11:20:57;43.28;;;32.53;;
26201;SDS011;13944;28.562;77.188;2022-09-09T11:23:29;41.58;;;33.30;;
26201;SDS011;13944;28.562;77.188;2022-09-09T11:25:59;39.67;;;32.40;;
26201;SDS011;13944;28.562;77.188;2022-09-09T11:28:41;39.15;;;32.67;;
26201;SDS011;13944;28.562;77.188;2022-09-09T11:41:51;38.47;;;33.78;;
26201;SDS011;13944;28.562;77.188;2022-09-09T11:44:19;39.67;;;31.65;;
26201;SDS011;13944;28.562;77.188;2022-09-09T11:46:50;50.53;;;34.80;;
26201;SDS011;13944;28.562;77.188;2022-09-09T11:54:49;50.38;;;33.45;;
26201;SDS011;13944;28.562;77.188;2022-09-09T11:57:23;47.90;;;32.78;;
26201;SDS011;13944;28.562;77.188;2022-09-09T11:59:51;41.65;;;29.88;;
26201;SDS011;13944;28.562;77.188;2022-09-09T12:02:27;44.00;;;32.10;;
26201;SDS011;13944;28.562;77.188;2022-09-09T12:05:03;45.97;;;33.75;;
26201;SDS011;13944;28.562;77.188;2022-09-09T12:07:50;43.10;;;34.17;;
26201;SDS011;13944;28.562;77.188;2022-09-09T12:10:23;47.55;;;36.95;;
26201;SDS011;13944;28.562;77.188;2022-09-09T12:12:52;45.67;;;36.35;;
26201;SDS011;13944;28.562;77.188;2022-09-09T12:15:20;45.85;;;37.38;;
26201;SDS011;13944;28.562;77.188;2022-09-09T12:17:48;47.25;;;36.53;;
26201;SDS011;13944;28.562;77.188;2022-09-09T12:25:23;49.45;;;38.60;;
26201;SDS011;13944;28.562;77.188;2022-09-09T12:30:49;46.75;;;37.63;;
26201;SDS011;13944;28.562;77.188;2022-09-09T12:33:17;50.78;;;38.95;;
26201;SDS011;13944;28.562;77.188;2022-09-09T12:35:45;51.58;;;39.20;;
26201;SDS011;13944;28.562;77.188;2022-09-09T12:38:15;49.33;;;40.00;;
26201;SDS011;13944;28.562;77.188;2022-09-09T12:40:53;51.03;;;40.42;;
26201;SDS011;13944;28.562;77.188;2022-09-09T12:43:20;53.38;;;40.50;;
26201;SDS011;13944;28.562;77.188;2022-09-09T12:45:47;52.67;;;40.35;;
26201;SDS011;13944;28.562;77.188;2022-09-09T12:48:17;54.28;;;42.63;;
26201;SDS011;13944;28.562;77.188;2022-09-09T12:50:50;48.40;;;40.90;;
26201;SDS011;13944;28.562;77.188;2022-09-09T12:53:24;54.42;;;42.60;;
26201;SDS011;13944;28.562;77.188;2022-09-09T12:58:24;47.95;;;41.60;;
26201;SDS011;13944;28.562;77.188;2022-09-09T13:00:54;50.60;;;39.70;;
26201;SDS011;13944;28.562;77.188;2022-09-09T13:03:25;53.50;;;40.97;;
26201;SDS011;13944;28.562;77.188;2022-09-09T13:05:52;47.65;;;39.58;;
26201;SDS011;13944;28.562;77.188;2022-09-09T13:08:18;52.00;;;40.80;;
26201;SDS011;13944;28.562;77.188;2022-09-09T13:10:50;48.65;;;39.95;;
26201;SDS011;13944;28.562;77.188;2022-09-09T13:13:22;52.10;;;39.83;;
26201;SDS011;13944;28.562;77.188;2022-09-09T13:15:50;58.75;;;41.03;;
26201;SDS011;13944;28.562;77.188;2022-09-09T13:18:17;51.78;;;40.40;;
26201;SDS011;13944;28.562;77.188;2022-09-09T13:20:46;56.55;;;41.50;;
26201;SDS011;13944;28.562;77.188;2022-09-09T13:23:13;58.30;;;42.60;;
26201;SDS011;13944;28.562;77.188;2022-09-09T13:25:40;53.35;;;40.65;;
26201;SDS011;13944;28.562;77.188;2022-09-09T13:28:22;52.05;;;42.13;;
26201;SDS011;13944;28.562;77.188;2022-09-09T13:31:03;48.60;;;40.25;;
26201;SDS011;13944;28.562;77.188;2022-09-09T13:33:41;49.75;;;42.38;;
26201;SDS011;13944;28.562;77.188;2022-09-09T13:36:09;51.88;;;40.55;;
26201;SDS011;13944;28.562;77.188;2022-09-09T13:38:37;44.75;;;38.75;;
26201;SDS011;13944;28.562;77.188;2022-09-09T13:41:05;47.13;;;40.00;;
26201;SDS011;13944;28.562;77.188;2022-09-09T13:43:45;55.83;;;41.45;;
26201;SDS011;13944;28.562;77.188;2022-09-09T13:48:58;49.40;;;40.00;;
26201;SDS011;13944;28.562;77.188;2022-09-09T13:51:30;47.78;;;41.65;;
26201;SDS011;13944;28.562;77.188;2022-09-09T13:53:59;50.67;;;40.95;;
26201;SDS011;13944;28.562;77.188;2022-09-09T13:56:26;52.17;;;41.88;;
26201;SDS011;13944;28.562;77.188;2022-09-09T13:58:53;53.65;;;44.55;;
26201;SDS011;13944;28.562;77.188;2022-09-09T14:01:21;51.75;;;43.47;;
26201;SDS011;13944;28.562;77.188;2022-09-09T14:03:48;52.90;;;42.95;;
26201;SDS011;13944;28.562;77.188;2022-09-09T14:06:15;52.13;;;44.00;;
26201;SDS011;13944;28.562;77.188;2022-09-09T14:08:47;53.45;;;42.53;;
26201;SDS011;13944;28.562;77.188;2022-09-09T14:11:15;54.47;;;42.10;;
26201;SDS011;13944;28.562;77.188;2022-09-09T14:13:43;47.85;;;40.75;;
26201;SDS011;13944;28.562;77.188;2022-09-09T14:16:10;51.72;;;41.88;;
26201;SDS011;13944;28.562;77.188;2022-09-09T14:18:36;56.25;;;41.33;;
26201;SDS011;13944;28.562;77.188;2022-09-09T14:21:04;48.15;;;39.00;;
26201;SDS011;13944;28.562;77.188;2022-09-09T14:23:31;43.80;;;38.50;;
26201;SDS011;13944;28.562;77.188;2022-09-09T14:25:57;50.47;;;40.17;;
26201;SDS011;13944;28.562;77.188;2022-09-09T14:28:26;52.03;;;39.92;;
26201;SDS011;13944;28.562;77.188;2022-09-09T14:30:53;50.75;;;39.10;;
26201;SDS011;13944;28.562;77.188;2022-09-09T14:33:23;48.20;;;38.75;;
26201;SDS011;13944;28.562;77.188;2022-09-09T14:36:02;45.83;;;38.90;;
26201;SDS011;13944;28.562;77.188;2022-09-09T14:38:33;47.47;;;40.17;;
26201;SDS011;13944;28.562;77.188;2022-09-09T14:41:04;50.53;;;39.65;;
26201;SDS011;13944;28.562;77.188;2022-09-09T14:43:30;50.85;;;40.90;;
26201;SDS011;13944;28.562;77.188;2022-09-09T14:46:07;50.80;;;41.08;;
26201;SDS011;13944;28.562;77.188;2022-09-09T14:48:34;52.13;;;41.47;;
26201;SDS011;13944;28.562;77.188;2022-09-09T14:51:05;52.83;;;40.60;;
26201;SDS011;13944;28.562;77.188;2022-09-09T14:53:32;52.65;;;42.67;;
26201;SDS011;13944;28.562;77.188;2022-09-09T14:56:13;57.42;;;42.35;;
26201;SDS011;13944;28.562;77.188;2022-09-09T14:58:40;50.63;;;41.15;;
26201;SDS011;13944;28.562;77.188;2022-09-09T15:01:07;53.78;;;41.58;;
26201;SDS011;13944;28.562;77.188;2022-09-09T15:03:36;51.95;;;41.50;;
26201;SDS011;13944;28.562;77.188;2022-09-09T15:06:06;49.63;;;40.33;;
26201;SDS011;13944;28.562;77.188;2022-09-09T15:08:34;49.78;;;39.90;;
26201;SDS011;13944;28.562;77.188;2022-09-09T15:11:01;56.08;;;41.05;;
26201;SDS011;13944;28.562;77.188;2022-09-09T15:13:28;50.58;;;40.55;;
26201;SDS011;13944;28.562;77.188;2022-09-09T15:15:54;58.00;;;42.38;;
26201;SDS011;13944;28.562;77.188;2022-09-09T15:18:23;53.22;;;40.08;;
26201;SDS011;13944;28.562;77.188;2022-09-09T15:20:50;51.42;;;40.05;;
26201;SDS011;13944;28.562;77.188;2022-09-09T15:23:18;58.55;;;42.67;;
26201;SDS011;13944;28.562;77.188;2022-09-09T15:25:51;50.00;;;40.33;;
26201;SDS011;13944;28.562;77.188;2022-09-09T15:28:18;58.30;;;39.83;;
26201;SDS011;13944;28.562;77.188;2022-09-09T15:30:54;53.63;;;40.88;;
26201;SDS011;13944;28.562;77.188;2022-09-09T15:33:22;57.95;;;39.88;;
26201;SDS011;13944;28.562;77.188;2022-09-09T15:35:48;52.97;;;42.28;;
26201;SDS011;13944;28.562;77.188;2022-09-09T15:38:16;52.20;;;40.88;;
26201;SDS011;13944;28.562;77.188;2022-09-09T15:40:44;54.90;;;43.88;;
26201;SDS011;13944;28.562;77.188;2022-09-09T15:43:12;55.67;;;42.67;;
26201;SDS011;13944;28.562;77.188;2022-09-09T15:45:38;52.05;;;41.97;;
26201;SDS011;13944;28.562;77.188;2022-09-09T15:48:05;58.63;;;42.70;;
26201;SDS011;13944;28.562;77.188;2022-09-09T15:50:31;59.10;;;45.03;;
26201;SDS011;13944;28.562;77.188;2022-09-09T15:52:58;54.30;;;43.00;;
26201;SDS011;13944;28.562;77.188;2022-09-09T15:55:25;54.70;;;43.08;;
26201;SDS011;13944;28.562;77.188;2022-09-09T15:57:51;56.90;;;43.33;;
26201;SDS011;13944;28.562;77.188;2022-09-09T16:00:20;55.85;;;42.70;;
26201;SDS011;13944;28.562;77.188;2022-09-09T16:02:48;60.25;;;42.78;;
26201;SDS011;13944;28.562;77.188;2022-09-09T16:05:15;55.38;;;41.95;;
26201;SDS011;13944;28.562;77.188;2022-09-09T16:07:41;64.93;;;43.03;;
26201;SDS011;13944;28.562;77.188;2022-09-09T16:10:10;52.97;;;42.95;;
26201;SDS011;13944;28.562;77.188;2022-09-09T16:12:38;53.35;;;41.40;;
26201;SDS011;13944;28.562;77.188;2022-09-09T16:15:05;54.20;;;42.92;;
26201;SDS011;13944;28.562;77.188;2022-09-09T16:17:32;57.15;;;45.45;;
26201;SDS011;13944;28.562;77.188;2022-09-09T16:20:03;63.40;;;45.85;;
26201;SDS011;13944;28.562;77.188;2022-09-09T16:22:32;60.47;;;45.13;;
26201;SDS011;13944;28.562;77.188;2022-09-09T16:24:58;57.47;;;44.05;;
26201;SDS011;13944;28.562;77.188;2022-09-09T16:27:24;54.38;;;45.33;;
26201;SDS011;13944;28.562;77.188;2022-09-09T16:29:51;57.08;;;44.90;;
26201;SDS011;13944;28.562;77.188;2022-09-09T16:32:19;58.25;;;46.40;;
26201;SDS011;13944;28.562;77.188;2022-09-09T16:34:45;54.70;;;45.15;;
26201;SDS011;13944;28.562;77.188;2022-09-09T16:37:12;66.78;;;49.30;;
26201;SDS011;13944;28.562;77.188;2022-09-09T16:39:38;62.15;;;47.88;;